createdAt,value
2022-10-01T00:02:17.329Z,98030.25
2022-10-01T00:04:43.989Z,98035.00
2022-10-01T00:07:15.197Z,98033.25
2022-10-01T00:09:42.031Z,98040.53
2022-10-01T00:12:08.640Z,98033.38
2022-10-01T00:14:39.235Z,98035.13
2022-10-01T00:17:05.968Z,98028.22
2022-10-01T00:19:32.594Z,98020.97
2022-10-01T00:21:59.256Z,98019.81
2022-10-01T00:24:25.937Z,98022.19
2022-10-01T00:26:53.235Z,98019.81
2022-10-01T00:29:19.834Z,98019.81
2022-10-01T00:31:46.541Z,98030.69
2022-10-01T00:34:15.535Z,98020.44
2022-10-01T00:36:42.367Z,98026.72
2022-10-01T00:39:11.205Z,98013.41
2022-10-01T00:41:38.557Z,98016.78
2022-10-01T00:44:28.962Z,98025.75
2022-10-01T00:46:58.734Z,98019.03
2022-10-01T00:49:27.798Z,98019.09
2022-10-01T00:51:58.408Z,98029.06
2022-10-01T00:54:42.731Z,98023.47
2022-10-01T00:57:09.367Z,98026.59
2022-10-01T00:59:36.514Z,98029.09
2022-10-01T01:02:03.978Z,98038.63
2022-10-01T01:04:30.819Z,98036.75
2022-10-01T01:06:58.868Z,98030.66
2022-10-01T01:09:31.829Z,98020.34
2022-10-01T01:12:13.726Z,98024.56
2022-10-01T01:14:55.198Z,98019.75
2022-10-01T01:17:30.045Z,98018.69
2022-10-01T01:20:05.845Z,98012.91
2022-10-01T01:22:35.728Z,98019.31
2022-10-01T01:25:18.639Z,98014.22
2022-10-01T01:28:04.021Z,98014.03
2022-10-01T01:30:31.785Z,98017.72
2022-10-01T01:33:06.029Z,98013.13
2022-10-01T01:35:37.432Z,98010.78
2022-10-01T01:38:11.418Z,97997.00
2022-10-01T01:40:39.359Z,97996.25
2022-10-01T01:43:10.309Z,97992.16
2022-10-01T01:45:40.065Z,97980.81
2022-10-01T01:48:09.970Z,97979.81
2022-10-01T01:50:42.637Z,97978.56
2022-10-01T01:53:09.412Z,97963.53
2022-10-01T01:55:36.866Z,97974.59
2022-10-01T01:58:03.733Z,97966.69
2022-10-01T02:00:30.363Z,97962.22
2022-10-01T02:02:57.585Z,97959.44
2022-10-01T02:05:27.342Z,97953.53
2022-10-01T02:08:23.182Z,97954.25
2022-10-01T02:11:03.348Z,97952.63
2022-10-01T02:13:42.029Z,97952.16
2022-10-01T02:16:27.683Z,97953.47
2022-10-01T02:19:02.416Z,97953.16
2022-10-01T02:21:35.560Z,97957.63
2022-10-01T02:24:05.034Z,97948.06
2022-10-01T02:26:32.681Z,97954.00
2022-10-01T02:29:04.714Z,97954.66
2022-10-01T02:31:32.581Z,97952.03
2022-10-01T02:34:01.448Z,97959.13
2022-10-01T02:36:30.057Z,97960.09
2022-10-01T02:38:57.058Z,97956.31
2022-10-01T02:41:27.851Z,97952.31
2022-10-01T02:44:08.010Z,97949.66
2022-10-01T02:46:40.107Z,97952.28
2022-10-01T02:49:06.786Z,97956.06
2022-10-01T02:51:52.161Z,97950.91
2022-10-01T02:54:33.475Z,97948.63
2022-10-01T02:57:18.744Z,97938.28
2022-10-01T02:59:45.504Z,97947.25
2022-10-01T03:02:12.230Z,97940.81
2022-10-01T03:04:39.282Z,97942.47
2022-10-01T03:07:05.920Z,97940.66
2022-10-01T03:09:34.591Z,97945.47
2022-10-01T03:12:01.930Z,97944.47
2022-10-01T03:14:28.706Z,97936.91
2022-10-01T03:16:55.437Z,97935.09
2022-10-01T03:19:22.199Z,97938.38
2022-10-01T03:21:48.858Z,97942.03
2022-10-01T03:24:15.478Z,97928.97
2022-10-01T03:26:42.234Z,97925.38
2022-10-01T03:29:09.755Z,97914.78
2022-10-01T03:31:38.313Z,97905.88
2022-10-01T03:34:05.154Z,97910.00
2022-10-01T03:36:31.799Z,97909.19
2022-10-01T03:38:58.389Z,97915.13
2022-10-01T03:41:25.048Z,97923.88
2022-10-01T03:43:51.710Z,97929.34
2022-10-01T03:46:18.296Z,97914.16
2022-10-01T03:48:44.895Z,97900.94
2022-10-01T03:51:11.547Z,97906.88
2022-10-01T03:53:38.685Z,97910.84
2022-10-01T03:56:05.449Z,97900.28
2022-10-01T03:58:32.201Z,97907.22
2022-10-01T04:01:00.638Z,97910.47
2022-10-01T04:03:27.222Z,97907.00
2022-10-01T04:05:53.893Z,97900.09
2022-10-01T04:08:24.267Z,97900.91
2022-10-01T04:10:51.306Z,97897.25
2022-10-01T04:13:18.192Z,97898.25
2022-10-01T04:15:44.997Z,97892.78
2022-10-01T04:18:11.712Z,97885.88
2022-10-01T04:20:38.733Z,97886.88
2022-10-01T04:23:05.741Z,97887.03
2022-10-01T04:25:32.440Z,97897.44
2022-10-01T04:28:02.122Z,97899.91
2022-10-01T04:30:31.964Z,97888.38
2022-10-01T04:32:58.662Z,97888.72
2022-10-01T04:35:26.717Z,97885.41
2022-10-01T04:38:07.229Z,97880.25
2022-10-01T04:40:35.999Z,97874.00
2022-10-01T04:43:04.047Z,97878.16
2022-10-01T04:45:30.988Z,97888.38
2022-10-01T04:47:58.396Z,97886.56
2022-10-01T04:50:26.911Z,97887.03
2022-10-01T04:52:53.913Z,97876.81
2022-10-01T04:55:21.417Z,97878.97
2022-10-01T04:57:48.378Z,97875.31
2022-10-01T05:00:17.974Z,97883.44
2022-10-01T05:02:45.778Z,97887.72
2022-10-01T05:05:12.858Z,97873.84
2022-10-01T05:07:39.989Z,97886.25
2022-10-01T05:10:09.213Z,97870.91
2022-10-01T05:12:35.857Z,97878.50
2022-10-01T05:15:03.274Z,97876.84
2022-10-01T05:17:34.072Z,97871.88
2022-10-01T05:20:01.696Z,97864.47
2022-10-01T05:22:28.831Z,97862.66
2022-10-01T05:24:55.503Z,97865.97
2022-10-01T05:27:22.111Z,97878.22
2022-10-01T05:29:49.130Z,97867.13
2022-10-01T05:32:16.537Z,97859.50
2022-10-01T05:34:43.113Z,97864.00
2022-10-01T05:37:10.979Z,97857.38
2022-10-01T05:39:37.975Z,97857.38
2022-10-01T05:42:06.537Z,97865.63
2022-10-01T05:44:37.931Z,97856.53
2022-10-01T05:47:07.458Z,97860.03
2022-10-01T05:49:34.156Z,97857.38
2022-10-01T05:52:01.180Z,97856.22
2022-10-01T05:54:29.658Z,97846.47
2022-10-01T05:56:59.289Z,97847.28
2022-10-01T05:59:31.025Z,97850.06
2022-10-01T06:01:58.502Z,97851.41
2022-10-01T06:04:25.269Z,97841.97
2022-10-01T06:06:53.250Z,97838.19
2022-10-01T06:09:20.042Z,97829.91
2022-10-01T06:11:48.985Z,97830.09
2022-10-01T06:14:16.251Z,97822.47
2022-10-01T06:16:43.059Z,97814.03
2022-10-01T06:19:09.874Z,97824.50
2022-10-01T06:21:36.947Z,97822.03
2022-10-01T06:24:03.971Z,97816.22
2022-10-01T06:26:31.287Z,97816.41
2022-10-01T06:28:57.928Z,97812.41
2022-10-01T06:31:25.218Z,97809.78
2022-10-01T06:33:51.940Z,97802.03
2022-10-01T06:36:18.570Z,97812.28
2022-10-01T06:38:48.435Z,97816.72
2022-10-01T06:41:15.053Z,97816.56
2022-10-01T06:43:41.701Z,97813.09
2022-10-01T06:46:08.397Z,97810.78
2022-10-01T06:48:36.724Z,97816.41
2022-10-01T06:51:04.092Z,97803.53
2022-10-01T06:53:31.954Z,97803.84
2022-10-01T06:56:04.483Z,97797.91
2022-10-01T06:58:31.138Z,97806.81
2022-10-01T07:01:02.045Z,97804.81
2022-10-01T07:03:29.161Z,97812.59
2022-10-01T07:06:01.256Z,97818.38
2022-10-01T07:08:27.841Z,97816.22
2022-10-01T07:10:59.582Z,97814.91
2022-10-01T07:13:26.177Z,97815.09
2022-10-01T07:15:52.778Z,97811.59
2022-10-01T07:18:19.378Z,97815.38
2022-10-01T07:20:46.103Z,97808.63
2022-10-01T07:23:14.362Z,97801.50
2022-10-01T07:25:41.916Z,97812.09
2022-10-01T07:28:16.610Z,97800.34
2022-10-01T07:30:47.498Z,97795.91
2022-10-01T07:33:20.932Z,97799.88
2022-10-01T07:35:48.040Z,97797.22
2022-10-01T07:38:14.806Z,97795.25
2022-10-01T07:40:42.050Z,97791.94
2022-10-01T07:43:08.968Z,97792.44
2022-10-01T07:45:35.586Z,97791.94
2022-10-01T07:48:03.370Z,97779.53
2022-10-01T07:50:30.647Z,97785.34
2022-10-01T07:52:58.722Z,97793.75
2022-10-01T07:55:27.516Z,97791.28
2022-10-01T07:57:55.903Z,97794.91
2022-10-01T08:00:25.766Z,97795.59
2022-10-01T08:02:54.380Z,97806.19
2022-10-01T08:05:23.454Z,97823.00
2022-10-01T08:07:50.656Z,97810.44
2022-10-01T08:10:19.237Z,97800.69
2022-10-01T08:12:46.292Z,97803.16
2022-10-01T08:15:15.564Z,97811.59
2022-10-01T08:17:42.667Z,97801.19
2022-10-01T08:20:11.262Z,97808.13
2022-10-01T08:22:41.865Z,97810.41
2022-10-01T08:25:09.878Z,97823.63
2022-10-01T08:27:36.917Z,97825.44
2022-10-01T08:30:04.217Z,97820.28
2022-10-01T08:32:31.283Z,97821.13
2022-10-01T08:35:00.013Z,97826.41
2022-10-01T08:37:27.920Z,97825.41
2022-10-01T08:39:55.334Z,97830.38
2022-10-01T08:42:39.448Z,97828.22
2022-10-01T08:45:11.780Z,97835.66
2022-10-01T08:47:45.397Z,97823.94
2022-10-01T08:50:31.677Z,97832.34
2022-10-01T08:53:02.549Z,97840.09
2022-10-01T08:55:36.319Z,97829.03
2022-10-01T08:58:08.987Z,97843.75
2022-10-01T09:00:36.339Z,97835.16
2022-10-01T09:03:06.557Z,97829.53
2022-10-01T09:05:52.334Z,97821.41
2022-10-01T09:08:57.785Z,97835.59
2022-10-01T09:11:35.393Z,97839.91
2022-10-01T09:14:25.032Z,97853.47
2022-10-01T09:16:51.694Z,97847.69
2022-10-01T09:19:34.723Z,97841.41
2022-10-01T09:22:10.211Z,97838.78
2022-10-01T09:24:43.640Z,97833.59
2022-10-01T09:27:18.324Z,97842.69
2022-10-01T09:30:04.126Z,97824.78
2022-10-01T09:32:34.386Z,97827.91
2022-10-01T09:35:05.944Z,97819.16
2022-10-01T09:37:43.474Z,97829.34
2022-10-01T09:40:36.154Z,97828.88
2022-10-01T09:43:04.257Z,97835.16
2022-10-01T09:45:31.360Z,97839.34
2022-10-01T09:48:05.276Z,97839.97
2022-10-01T09:50:39.939Z,97849.50
2022-10-01T09:53:12.947Z,97847.22
2022-10-01T09:55:41.774Z,97851.84
2022-10-01T09:58:19.203Z,97855.78
2022-10-01T10:00:46.071Z,97859.41
2022-10-01T10:03:27.613Z,97856.38
2022-10-01T10:05:55.117Z,97865.59
2022-10-01T10:08:28.018Z,97858.13
2022-10-01T10:10:58.923Z,97862.97
2022-10-01T10:13:32.078Z,97862.59
2022-10-01T10:16:00.081Z,97858.56
2022-10-01T10:18:34.623Z,97864.53
2022-10-01T10:21:15.140Z,97868.50
2022-10-01T10:23:57.097Z,97857.91
2022-10-01T10:26:32.439Z,97844.88
2022-10-01T10:29:02.256Z,97836.47
2022-10-01T10:31:38.025Z,97833.81
2022-10-01T10:34:31.960Z,97841.47
2022-10-01T10:37:00.632Z,97843.63
2022-10-01T10:39:32.907Z,97831.69
2022-10-01T10:42:00.274Z,97828.22
2022-10-01T10:44:39.749Z,97829.56
2022-10-01T10:47:10.599Z,97836.13
2022-10-01T10:50:04.554Z,97825.84
2022-10-01T10:52:36.479Z,97824.13
2022-10-01T10:55:31.160Z,97824.63
2022-10-01T10:58:34.719Z,97825.66
2022-10-01T11:01:06.226Z,97817.66
2022-10-01T11:03:33.494Z,97809.75
2022-10-01T11:06:09.902Z,97810.47
2022-10-01T11:08:36.678Z,97804.75
2022-10-01T11:11:21.679Z,97814.44
2022-10-01T11:13:59.241Z,97806.22
2022-10-01T11:16:47.575Z,97820.28
2022-10-01T11:19:37.767Z,97803.56
2022-10-01T11:22:26.198Z,97796.16
2022-10-01T11:25:01.204Z,97800.28
2022-10-01T11:28:13.018Z,97793.06
2022-10-01T11:31:19.456Z,97804.69
2022-10-01T11:34:00.527Z,97801.09
2022-10-01T11:36:28.666Z,97808.13
2022-10-01T11:38:59.174Z,97810.69
2022-10-01T11:41:47.311Z,97826.69
2022-10-01T11:44:29.633Z,97816.72
2022-10-01T11:47:01.932Z,97822.56
2022-10-01T11:49:45.489Z,97829.25
2022-10-01T11:52:59.623Z,97831.00
2022-10-01T11:56:00.391Z,97826.59
2022-10-01T11:59:02.531Z,97838.03
2022-10-01T12:01:38.269Z,97834.00
2022-10-01T12:04:50.767Z,97846.34
2022-10-01T12:07:30.288Z,97848.91
2022-10-01T12:10:18.277Z,97853.41
2022-10-01T12:12:54.407Z,97848.09
2022-10-01T12:15:30.059Z,97845.75
2022-10-01T12:18:55.263Z,97842.16
2022-10-01T12:21:38.540Z,97835.44
2022-10-01T12:24:12.164Z,97840.47
2022-10-01T12:27:23.911Z,97839.91
2022-10-01T12:30:29.485Z,97843.78
2022-10-01T12:33:28.083Z,97853.91
2022-10-01T12:36:23.315Z,97863.59
2022-10-01T12:39:00.259Z,97861.25
2022-10-01T12:41:52.516Z,97859.16
2022-10-01T12:44:21.469Z,97857.13
2022-10-01T12:47:06.647Z,97854.72
2022-10-01T12:49:37.711Z,97863.44
2022-10-01T12:52:11.685Z,97866.81
2022-10-01T12:54:41.815Z,97865.09
2022-10-01T12:57:17.534Z,97863.06
2022-10-01T12:59:59.320Z,97858.94
2022-10-01T13:02:45.255Z,97870.13
2022-10-01T13:05:17.566Z,97868.28
2022-10-01T13:07:59.187Z,97872.41
2022-10-01T13:11:21.052Z,97867.47
2022-10-01T13:13:51.654Z,97859.19
2022-10-01T13:16:30.507Z,97867.13
2022-10-01T13:19:18.048Z,97867.28
2022-10-01T13:22:07.911Z,97867.22
2022-10-01T13:25:00.722Z,97862.72
2022-10-01T13:27:43.903Z,97868.66
2022-10-01T13:30:23.098Z,97870.06
2022-10-01T13:32:58.569Z,97877.44
2022-10-01T13:35:42.331Z,97874.53
2022-10-01T13:38:31.303Z,97871.13
2022-10-01T13:41:00.117Z,97878.53
2022-10-01T13:43:32.393Z,97881.63
2022-10-01T13:46:09.058Z,97871.81
2022-10-01T13:48:46.043Z,97864.53
2022-10-01T13:51:13.571Z,97874.25
2022-10-01T13:53:43.352Z,97873.22
2022-10-01T13:56:14.450Z,97869.41
2022-10-01T13:58:42.882Z,97869.28
2022-10-01T14:01:24.727Z,97865.72
2022-10-01T14:04:19.054Z,97871.03
2022-10-01T14:06:54.072Z,97868.56
2022-10-01T14:09:27.976Z,97866.09
2022-10-01T14:12:26.025Z,97874.47
2022-10-01T14:15:16.440Z,97886.66
2022-10-01T14:17:50.390Z,97880.13
2022-10-01T14:20:19.542Z,97886.09
2022-10-01T14:23:11.566Z,97886.13
2022-10-01T14:25:59.602Z,97872.69
2022-10-01T14:28:35.431Z,97881.34
2022-10-01T14:31:45.583Z,97883.28
2022-10-01T14:34:21.314Z,97879.13
2022-10-01T14:36:50.099Z,97886.50
2022-10-01T14:39:18.352Z,97886.34
2022-10-01T14:41:47.177Z,97890.47
2022-10-01T14:44:43.305Z,97891.44
2022-10-01T14:47:27.949Z,97886.63
2022-10-01T14:49:55.060Z,97894.16
2022-10-01T14:52:27.857Z,97888.03
2022-10-01T14:55:04.624Z,97892.22
2022-10-01T14:57:36.598Z,97895.44
2022-10-01T15:00:12.777Z,97896.03
2022-10-01T15:02:50.819Z,97897.38
2022-10-01T15:05:22.607Z,97904.09
2022-10-01T15:07:49.327Z,97902.88
2022-10-01T15:10:20.574Z,97905.41
2022-10-01T15:12:50.449Z,97906.69
2022-10-01T15:15:40.644Z,97905.53
2022-10-01T15:18:07.789Z,97902.16
2022-10-01T15:20:34.984Z,97908.66
2022-10-01T15:23:05.209Z,97898.25
2022-10-01T15:25:32.403Z,97914.16
2022-10-01T15:27:59.256Z,97923.06
2022-10-01T15:30:27.908Z,97918.06
2022-10-01T15:32:54.720Z,97918.78
2022-10-01T15:35:22.814Z,97921.34
2022-10-01T15:37:50.602Z,97924.75
2022-10-01T15:40:29.275Z,97920.03
2022-10-01T15:43:12.386Z,97923.88
2022-10-01T15:45:39.059Z,97928.84
2022-10-01T15:48:30.030Z,97935.28
2022-10-01T15:51:04.087Z,97933.16
2022-10-01T15:53:42.902Z,97934.28
2022-10-01T15:56:20.589Z,97945.00
2022-10-01T15:59:01.001Z,97951.78
2022-10-01T16:01:32.443Z,97945.69
2022-10-01T16:04:07.749Z,97944.72
2022-10-01T16:06:52.457Z,97952.06
2022-10-01T16:09:31.234Z,97962.38
2022-10-01T16:12:26.134Z,97966.13
2022-10-01T16:15:35.520Z,97974.38
2022-10-01T16:18:29.476Z,97982.47
2022-10-01T16:21:07.962Z,97983.28
2022-10-01T16:23:53.547Z,97991.47
2022-10-01T16:26:31.577Z,97995.09
2022-10-01T16:29:07.148Z,97981.53
2022-10-01T16:32:04.811Z,97990.34
2022-10-01T16:34:48.437Z,97998.31
2022-10-01T16:37:38.231Z,97990.00
2022-10-01T16:40:36.639Z,97991.56
2022-10-01T16:43:22.673Z,97993.28
2022-10-01T16:46:01.838Z,97997.59
2022-10-01T16:48:31.345Z,97996.56
2022-10-01T16:51:07.200Z,98003.44
2022-10-01T16:53:46.198Z,98019.47
2022-10-01T16:56:26.931Z,98020.78
2022-10-01T16:59:06.156Z,98017.75
2022-10-01T17:01:42.505Z,98026.44
2022-10-01T17:04:14.071Z,98030.28
2022-10-01T17:06:53.971Z,98029.75
2022-10-01T17:09:44.547Z,98038.91
2022-10-01T17:12:27.179Z,98041.13
2022-10-01T17:15:14.664Z,98043.25
2022-10-01T17:18:09.259Z,98045.06
2022-10-01T17:20:42.476Z,98048.47
2022-10-01T17:23:25.248Z,98048.81
2022-10-01T17:26:06.930Z,98053.78
2022-10-01T17:28:53.928Z,98055.97
2022-10-01T17:31:33.307Z,98057.41
2022-10-01T17:34:09.802Z,98068.03
2022-10-01T17:36:41.649Z,98056.03
2022-10-01T17:39:16.697Z,98066.38
2022-10-01T17:41:49.876Z,98070.41
2022-10-01T17:44:24.617Z,98070.84
2022-10-01T17:47:06.808Z,98080.16
2022-10-01T17:49:38.209Z,98079.53
2022-10-01T17:52:18.612Z,98073.00
2022-10-01T17:54:49.297Z,98093.72
2022-10-01T17:57:22.604Z,98098.13
2022-10-01T17:59:52.107Z,98103.16
2022-10-01T18:02:44.181Z,98113.81
2022-10-01T18:05:19.344Z,98111.34
2022-10-01T18:07:50.269Z,98119.13
2022-10-01T18:10:25.263Z,98129.25
2022-10-01T18:12:57.797Z,98128.44
2022-10-01T18:15:30.565Z,98132.88
2022-10-01T18:19:30.970Z,98133.75
2022-10-01T18:21:08.440Z,98132.78
2022-10-01T18:23:39.377Z,98141.41
2022-10-01T18:26:20.031Z,98144.84
2022-10-01T18:29:00.403Z,98140.75
2022-10-01T18:31:39.768Z,98148.91
2022-10-01T18:34:34.538Z,98153.84
2022-10-01T18:37:46.899Z,98165.28
2022-10-01T18:40:27.019Z,98163.97
2022-10-01T18:43:13.010Z,98178.56
2022-10-01T18:46:03.646Z,98178.72
2022-10-01T18:49:27.485Z,98184.03
2022-10-01T18:52:41.845Z,98190.66
2022-10-01T18:55:44.789Z,98197.19
2022-10-01T18:58:51.142Z,98197.50
2022-10-01T19:01:48.951Z,98210.78
2022-10-01T19:04:59.135Z,98202.16
2022-10-01T19:07:58.644Z,98211.47
2022-10-01T19:11:07.370Z,98219.44
2022-10-01T19:14:31.816Z,98227.19
2022-10-01T19:17:17.759Z,98228.56
2022-10-01T19:20:19.368Z,98233.88
2022-10-01T19:23:07.868Z,98238.50
2022-10-01T19:25:55.347Z,98238.31
2022-10-01T19:28:45.874Z,98242.31
2022-10-01T19:31:34.984Z,98253.25
2022-10-01T19:34:11.200Z,98260.34
2022-10-01T19:36:48.565Z,98250.22
2022-10-01T19:39:31.356Z,98268.97
2022-10-01T19:42:36.784Z,98272.66
2022-10-01T19:45:31.345Z,98276.94
2022-10-01T19:48:16.571Z,98278.97
2022-10-01T19:50:48.765Z,98284.75
2022-10-01T19:53:31.999Z,98289.34
2022-10-01T19:56:05.413Z,98292.53
2022-10-01T19:58:52.531Z,98302.16
2022-10-01T20:01:34.775Z,98302.94
2022-10-01T20:04:20.907Z,98315.06
2022-10-01T20:07:01.578Z,98313.44
2022-10-01T20:10:16.109Z,98332.16
2022-10-01T20:13:05.105Z,98336.50
2022-10-01T20:16:04.861Z,98342.91
2022-10-01T20:18:39.862Z,98339.91
2022-10-01T20:21:26.950Z,98347.53
2022-10-01T20:24:06.510Z,98355.69
2022-10-01T20:26:42.794Z,98360.34
2022-10-01T20:29:30.731Z,98364.97
2022-10-01T20:32:45.906Z,98360.66
2022-10-01T20:35:45.896Z,98365.97
2022-10-01T20:38:35.589Z,98364.97
2022-10-01T20:41:16.478Z,98368.63
2022-10-01T20:43:54.635Z,98367.81
2022-10-01T20:46:39.009Z,98368.63
2022-10-01T20:49:21.143Z,98382.38
2022-10-01T20:52:13.183Z,98384.69
2022-10-01T20:54:45.125Z,98395.66
2022-10-01T20:57:42.586Z,98394.00
2022-10-01T21:00:34.314Z,98397.66
2022-10-01T21:03:42.648Z,98402.81
2022-10-01T21:06:30.681Z,98403.31
2022-10-01T21:09:15.348Z,98407.31
2022-10-01T21:12:02.266Z,98398.50
2022-10-01T21:14:39.092Z,98409.44
2022-10-01T21:17:32.816Z,98405.28
2022-10-01T21:20:37.759Z,98404.47
2022-10-01T21:23:17.654Z,98419.72
2022-10-01T21:26:19.821Z,98429.03
2022-10-01T21:29:14.918Z,98420.25
2022-10-01T21:31:47.187Z,98430.03
2022-10-01T21:34:36.911Z,98427.22
2022-10-01T21:37:29.151Z,98425.72
2022-10-01T21:40:28.224Z,98426.91
2022-10-01T21:43:10.249Z,98432.06
2022-10-01T21:46:34.625Z,98443.16
2022-10-01T21:49:24.536Z,98447.97
2022-10-01T21:52:33.049Z,98458.75
2022-10-01T21:55:20.397Z,98460.91
2022-10-01T21:58:27.194Z,98464.03
2022-10-01T22:01:27.733Z,98474.50
2022-10-01T22:04:14.546Z,98464.69
2022-10-01T22:07:11.964Z,98467.19
2022-10-01T22:09:51.948Z,98467.34
2022-10-01T22:12:28.150Z,98467.84
2022-10-01T22:15:01.668Z,98477.84
2022-10-01T22:17:42.540Z,98481.16
2022-10-01T22:20:25.155Z,98491.44
2022-10-01T22:22:57.225Z,98505.72
2022-10-01T22:25:35.534Z,98510.00
2022-10-01T22:28:13.731Z,98501.75
2022-10-01T22:30:44.990Z,98499.25
2022-10-01T22:33:34.365Z,98498.22
2022-10-01T22:36:09.078Z,98500.88
2022-10-01T22:38:58.036Z,98512.03
2022-10-01T22:41:28.824Z,98503.06
2022-10-01T22:44:00.239Z,98506.72
2022-10-01T22:47:01.283Z,98502.38
2022-10-01T22:50:13.170Z,98517.34
2022-10-01T22:53:00.399Z,98523.28
2022-10-01T22:56:15.313Z,98517.50
2022-10-01T22:59:17.331Z,98522.31
2022-10-01T23:02:43.156Z,98516.34
2022-10-01T23:05:40.038Z,98518.66
2022-10-01T23:08:30.111Z,98525.28
2022-10-01T23:11:32.017Z,98531.94
2022-10-01T23:14:20.586Z,98531.41
2022-10-01T23:17:14.890Z,98547.00
2022-10-01T23:20:06.510Z,98544.50
2022-10-01T23:22:45.615Z,98546.81
2022-10-01T23:25:40.588Z,98545.00
2022-10-01T23:28:32.723Z,98547.50
2022-10-01T23:31:37.985Z,98548.66
2022-10-01T23:34:29.137Z,98557.31
2022-10-01T23:37:17.071Z,98557.78
2022-10-01T23:39:48.014Z,98566.44
2022-10-01T23:42:33.381Z,98567.06
2022-10-01T23:45:15.411Z,98573.06
2022-10-01T23:47:48.363Z,98572.72
2022-10-01T23:50:22.768Z,98569.44
2022-10-01T23:53:00.532Z,98575.91
2022-10-01T23:56:15.986Z,98573.06
2022-10-01T23:59:13.905Z,98588.34
